createdAt,value
2018-09-21T00:00:09.525Z,74.43
2018-09-21T00:02:37.877Z,74.03
2018-09-21T00:05:06.286Z,74.08
2018-09-21T00:07:34.751Z,73.77
2018-09-21T00:10:03.088Z,73.36
2018-09-21T00:12:31.481Z,74.21
2018-09-21T00:14:59.869Z,73.59
2018-09-21T00:17:28.283Z,73.78
2018-09-21T00:19:56.684Z,73.70
2018-09-21T00:22:25.007Z,73.96
2018-09-21T00:24:53.436Z,73.81
2018-09-21T00:27:21.781Z,74.43
2018-09-21T00:29:50.169Z,74.79
2018-09-21T00:32:18.529Z,75.79
2018-09-21T00:34:46.913Z,74.67
2018-09-21T00:37:15.333Z,75.39
2018-09-21T00:39:43.740Z,75.00
2018-09-21T00:42:12.092Z,74.95
2018-09-21T00:44:40.493Z,75.39
2018-09-21T00:47:08.898Z,75.69
2018-09-21T00:49:37.220Z,75.82
2018-09-21T00:52:05.613Z,75.48
2018-09-21T00:54:33.980Z,74.97
2018-09-21T00:57:02.455Z,75.25
2018-09-21T00:59:30.905Z,75.20
2018-09-21T01:01:59.252Z,75.71
2018-09-21T01:04:31.776Z,74.93
2018-09-21T01:07:00.200Z,74.91
2018-09-21T01:09:28.542Z,74.68
2018-09-21T01:11:56.925Z,75.02
2018-09-21T01:14:25.375Z,74.47
2018-09-21T01:16:54.197Z,75.43
2018-09-21T01:19:22.836Z,75.62
2018-09-21T01:21:51.260Z,75.14
2018-09-21T01:24:19.660Z,75.04
2018-09-21T01:26:48.018Z,75.14
2018-09-21T01:29:16.424Z,74.90
2018-09-21T01:31:44.799Z,75.00
2018-09-21T01:34:13.207Z,75.23
2018-09-21T01:36:41.636Z,74.98
2018-09-21T01:39:10.895Z,74.76
2018-09-21T01:41:39.309Z,74.38
2018-09-21T01:44:08.447Z,75.25
2018-09-21T01:46:36.794Z,75.09
2018-09-21T01:49:05.226Z,75.15
2018-09-21T01:51:33.573Z,75.99
2018-09-21T01:54:01.911Z,75.55
2018-09-21T01:56:30.259Z,74.87
2018-09-21T01:58:58.614Z,75.63
2018-09-21T02:01:26.976Z,76.17
2018-09-21T02:03:55.304Z,76.14
2018-09-21T02:06:23.659Z,76.12
2018-09-21T02:08:52.032Z,77.13
2018-09-21T02:11:20.471Z,77.17
2018-09-21T02:13:48.814Z,76.15
2018-09-21T02:16:17.165Z,75.71
2018-09-21T02:18:45.484Z,75.52
2018-09-21T02:21:13.867Z,75.49
2018-09-21T02:23:42.210Z,75.81
2018-09-21T02:26:10.624Z,74.82
2018-09-21T02:28:38.947Z,74.81
2018-09-21T02:31:07.326Z,75.33
2018-09-21T02:33:35.690Z,74.63
2018-09-21T02:36:04.041Z,74.51
2018-09-21T02:38:32.566Z,74.14
2018-09-21T02:41:00.901Z,73.32
2018-09-21T02:43:29.277Z,73.17
2018-09-21T02:45:57.611Z,73.89
2018-09-21T02:48:25.964Z,72.83
2018-09-21T02:50:54.291Z,73.29
2018-09-21T02:53:22.659Z,72.81
2018-09-21T02:55:51.006Z,72.84
2018-09-21T02:58:19.419Z,72.99
2018-09-21T03:00:47.822Z,73.08
2018-09-21T03:03:16.127Z,73.09
2018-09-21T03:05:44.442Z,73.26
2018-09-21T03:08:13.379Z,74.61
2018-09-21T03:10:41.724Z,74.14
2018-09-21T03:13:10.124Z,75.26
2018-09-21T03:15:38.412Z,75.07
2018-09-21T03:18:06.797Z,75.17
2018-09-21T03:20:35.171Z,74.86
2018-09-21T03:23:03.505Z,75.96
2018-09-21T03:25:47.043Z,75.14
2018-09-21T03:28:27.517Z,75.06
2018-09-21T03:30:55.883Z,75.34
2018-09-21T03:33:24.325Z,73.73
2018-09-21T03:35:52.681Z,74.23
2018-09-21T03:38:21.055Z,74.31
2018-09-21T03:40:49.447Z,74.92
2018-09-21T03:43:17.799Z,73.51
2018-09-21T03:45:46.165Z,74.18
2018-09-21T03:48:14.512Z,74.21
2018-09-21T03:50:42.877Z,74.07
2018-09-21T03:53:11.190Z,74.01
2018-09-21T03:55:39.572Z,74.92
2018-09-21T03:58:08.056Z,74.62
2018-09-21T04:00:36.440Z,75.16
2018-09-21T04:03:04.864Z,74.60
2018-09-21T04:05:33.210Z,74.51
2018-09-21T04:08:01.570Z,75.27
2018-09-21T04:10:29.949Z,74.93
2018-09-21T04:13:00.156Z,75.34
2018-09-21T04:15:28.571Z,75.97
2018-09-21T04:18:08.300Z,74.88
2018-09-21T04:20:40.700Z,75.13
2018-09-21T04:23:23.191Z,75.37
2018-09-21T04:29:48.488Z,75.47
2018-09-21T04:32:16.983Z,74.61
2018-09-21T04:34:45.328Z,75.45
2018-09-21T04:37:14.684Z,74.34
2018-09-21T04:39:43.051Z,75.13
2018-09-21T04:42:11.548Z,75.24
2018-09-21T04:44:40.149Z,75.44
2018-09-21T04:47:08.680Z,74.96
2018-09-21T04:49:37.233Z,74.42
2018-09-21T04:52:06.418Z,74.41
2018-09-21T04:54:34.975Z,74.51
2018-09-21T04:57:03.672Z,74.82
2018-09-21T04:59:49.924Z,74.67
2018-09-21T05:02:20.477Z,75.25
2018-09-21T05:04:55.976Z,74.71
2018-09-21T05:07:24.331Z,74.75
2018-09-21T05:09:52.742Z,75.05
2018-09-21T05:12:21.103Z,75.32
2018-09-21T05:14:49.827Z,75.00
2018-09-21T05:17:18.469Z,74.96
2018-09-21T05:19:47.255Z,75.18
2018-09-21T05:22:15.896Z,75.57
2018-09-21T05:24:44.717Z,74.91
2018-09-21T05:27:13.541Z,74.82
2018-09-21T05:29:42.163Z,73.79
2018-09-21T05:32:10.808Z,73.78
2018-09-21T05:34:39.599Z,73.33
2018-09-21T05:37:08.152Z,73.25
2018-09-21T05:39:36.856Z,72.39
2018-09-21T05:42:05.461Z,71.25
2018-09-21T05:44:34.071Z,70.88
2018-09-21T05:47:02.594Z,70.33
2018-09-21T05:49:31.237Z,70.21
2018-09-21T05:51:59.862Z,69.61
2018-09-21T05:54:28.603Z,69.04
2018-09-21T05:56:57.236Z,69.16
2018-09-21T05:59:25.610Z,68.51
2018-09-21T06:01:54.071Z,67.96
2018-09-21T06:04:23.288Z,67.05
2018-09-21T06:06:51.919Z,65.59
2018-09-21T06:09:20.496Z,63.82
2018-09-21T06:11:49.169Z,64.39
2018-09-21T06:14:17.702Z,63.71
2018-09-21T06:16:46.342Z,62.51
2018-09-21T06:19:14.818Z,61.93
2018-09-21T06:21:43.371Z,61.86
2018-09-21T06:24:14.472Z,62.17
2018-09-21T06:26:42.992Z,62.30
2018-09-21T06:29:11.541Z,62.22
2018-09-21T06:31:40.158Z,61.05
2018-09-21T06:34:08.720Z,60.43
2018-09-21T06:36:37.300Z,60.05
2018-09-21T06:39:09.214Z,60.00
2018-09-21T06:41:38.139Z,59.19
2018-09-21T06:44:07.044Z,59.53
2018-09-21T06:46:35.668Z,58.30
2018-09-21T06:49:04.126Z,58.28
2018-09-21T06:51:32.832Z,57.55
2018-09-21T06:54:01.183Z,57.69
2018-09-21T06:56:29.826Z,57.73
2018-09-21T06:58:58.402Z,57.57
2018-09-21T07:01:26.999Z,57.76
2018-09-21T07:03:55.618Z,57.02
2018-09-21T07:06:24.348Z,57.16
2018-09-21T07:08:52.700Z,55.95
2018-09-21T07:11:21.120Z,56.44
2018-09-21T07:13:49.404Z,56.05
2018-09-21T07:16:18.938Z,56.79
2018-09-21T07:18:47.286Z,56.12
2018-09-21T07:21:15.787Z,56.44
2018-09-21T07:23:44.481Z,55.22
2018-09-21T07:26:13.227Z,56.85
2018-09-21T07:28:42.107Z,56.15
2018-09-21T07:31:11.020Z,55.62
2018-09-21T07:33:39.598Z,56.36
2018-09-21T07:36:08.163Z,55.78
2018-09-21T07:38:36.732Z,56.23
2018-09-21T07:41:05.442Z,56.19
2018-09-21T07:43:34.357Z,55.80
2018-09-21T07:46:02.867Z,56.37
2018-09-21T07:48:31.530Z,56.00
2018-09-21T07:51:00.052Z,55.81
2018-09-21T07:53:28.824Z,55.38
2018-09-21T07:55:57.585Z,55.42
2018-09-21T07:58:26.287Z,54.37
2018-09-21T08:00:55.026Z,55.56
2018-09-21T08:03:23.666Z,54.87
2018-09-21T08:05:52.206Z,54.48
2018-09-21T08:08:20.765Z,53.75
2018-09-21T08:10:49.300Z,53.77
2018-09-21T08:13:17.805Z,52.65
2018-09-21T08:15:46.364Z,52.64
2018-09-21T08:18:15.039Z,51.86
2018-09-21T08:20:43.502Z,53.09
2018-09-21T08:23:11.861Z,52.86
2018-09-21T08:25:40.302Z,51.44
2018-09-21T08:28:08.642Z,52.17
2018-09-21T08:30:37.235Z,52.39
2018-09-21T08:33:05.854Z,52.90
2018-09-21T08:35:34.429Z,52.46
2018-09-21T08:38:02.767Z,52.28
2018-09-21T08:40:31.368Z,52.07
2018-09-21T08:42:59.898Z,52.99
2018-09-21T08:45:28.552Z,52.54
2018-09-21T08:47:57.270Z,51.61
2018-09-21T08:50:25.878Z,53.02
2018-09-21T08:52:54.557Z,52.29
2018-09-21T08:55:22.962Z,52.75
2018-09-21T08:57:51.293Z,52.36
2018-09-21T09:00:19.594Z,52.19
2018-09-21T09:02:47.973Z,52.85
2018-09-21T09:05:16.367Z,52.52
2018-09-21T09:07:44.779Z,52.58
2018-09-21T09:10:13.611Z,53.50
2018-09-21T09:12:42.236Z,53.29
2018-09-21T09:15:10.830Z,52.07
2018-09-21T09:17:39.328Z,52.39
2018-09-21T09:20:09.720Z,52.17
2018-09-21T09:22:38.428Z,51.27
2018-09-21T09:25:07.558Z,51.31
2018-09-21T09:27:36.602Z,51.98
2018-09-21T09:30:05.938Z,51.18
2018-09-21T09:32:34.535Z,51.25
2018-09-21T09:35:09.660Z,49.91
2018-09-21T09:37:38.229Z,50.29
2018-09-21T09:40:07.301Z,49.80
2018-09-21T09:42:35.953Z,48.94
2018-09-21T09:45:04.415Z,47.31
2018-09-21T09:47:32.710Z,48.08
2018-09-21T09:50:01.334Z,47.31
2018-09-21T09:52:29.953Z,46.64
2018-09-21T09:54:58.674Z,44.82
2018-09-21T09:57:27.217Z,45.54
2018-09-21T09:59:55.753Z,45.26
2018-09-21T10:02:24.155Z,45.25
2018-09-21T10:04:52.601Z,45.83
2018-09-21T10:07:20.991Z,44.68
2018-09-21T10:09:49.422Z,44.19
2018-09-21T10:12:17.745Z,44.69
2018-09-21T10:14:46.089Z,45.00
2018-09-21T10:17:14.693Z,43.62
2018-09-21T10:19:43.400Z,43.29
2018-09-21T10:22:12.518Z,44.20
2018-09-21T10:24:40.904Z,43.67
2018-09-21T10:27:09.486Z,44.05
2018-09-21T10:29:37.804Z,42.90
2018-09-21T10:32:06.256Z,43.96
2018-09-21T10:34:34.545Z,43.85
2018-09-21T10:37:03.513Z,43.06
2018-09-21T10:39:31.825Z,42.48
2018-09-21T10:42:00.154Z,44.16
2018-09-21T10:44:28.482Z,42.81
2018-09-21T10:46:56.790Z,44.20
2018-09-21T10:49:25.213Z,44.12
2018-09-21T10:52:15.532Z,43.44
2018-09-21T10:54:43.855Z,44.36
2018-09-21T10:57:12.248Z,43.36
2018-09-21T10:59:40.562Z,44.66
2018-09-21T11:02:08.912Z,44.23
2018-09-21T11:04:37.253Z,42.12
2018-09-21T11:07:05.720Z,44.49
2018-09-21T11:09:34.140Z,43.84
2018-09-21T11:12:02.626Z,44.87
2018-09-21T11:14:31.100Z,45.41
2018-09-21T11:16:59.606Z,43.62
2018-09-21T11:19:28.150Z,44.09
2018-09-21T11:21:56.706Z,44.63
2018-09-21T11:24:25.852Z,44.58
2018-09-21T11:26:54.307Z,46.46
2018-09-21T11:29:22.813Z,44.60
2018-09-21T11:31:51.207Z,45.22
2018-09-21T11:34:19.701Z,46.34
2018-09-21T11:36:48.595Z,45.81
2018-09-21T11:39:17.148Z,46.37
2018-09-21T11:42:15.682Z,48.60
2018-09-21T11:44:44.207Z,48.40
2018-09-21T11:47:12.844Z,47.63
2018-09-21T11:49:41.224Z,48.42
2018-09-21T11:52:09.731Z,49.67
2018-09-21T11:54:38.253Z,50.22
2018-09-21T11:57:06.878Z,51.19
2018-09-21T11:59:35.342Z,53.46
2018-09-21T12:02:03.822Z,55.80
2018-09-21T12:04:32.260Z,58.31
2018-09-21T12:07:00.771Z,69.96
2018-09-21T12:09:29.161Z,81.81
2018-09-21T12:11:57.667Z,87.56
2018-09-21T12:14:26.146Z,86.55
2018-09-21T12:16:54.603Z,88.58
2018-09-21T12:19:23.066Z,87.62
2018-09-21T12:21:51.569Z,86.73
2018-09-21T12:24:20.024Z,87.51
2018-09-21T12:26:48.613Z,86.00
2018-09-21T12:29:17.128Z,85.69
2018-09-21T12:31:45.672Z,85.04
2018-09-21T12:34:14.097Z,85.42
2018-09-21T12:36:42.591Z,84.29
2018-09-21T12:39:12.926Z,84.87
2018-09-21T12:41:41.628Z,86.16
2018-09-21T12:44:11.231Z,86.14
2018-09-21T12:46:39.787Z,85.90
2018-09-21T12:49:08.356Z,85.30
2018-09-21T12:51:36.804Z,85.19
2018-09-21T12:54:05.296Z,84.98
2018-09-21T12:56:33.917Z,85.62
2018-09-21T12:59:02.365Z,84.81
2018-09-21T13:01:30.831Z,84.12
2018-09-21T13:03:59.386Z,84.93
2018-09-21T13:06:27.802Z,86.73
2018-09-21T13:08:56.317Z,87.51
2018-09-21T13:11:24.837Z,87.64
2018-09-21T13:13:53.349Z,87.20
2018-09-21T13:16:21.855Z,87.81
2018-09-21T13:18:50.370Z,88.73
2018-09-21T13:21:18.846Z,88.62
2018-09-21T13:23:47.452Z,87.98
2018-09-21T13:26:15.837Z,88.53
2018-09-21T13:28:44.447Z,87.85
2018-09-21T13:31:12.915Z,88.06
2018-09-21T13:33:42.003Z,88.54
2018-09-21T13:36:10.529Z,87.79
2018-09-21T13:38:38.944Z,88.50
2018-09-21T13:41:07.386Z,87.03
2018-09-21T13:43:35.827Z,87.65
2018-09-21T13:46:04.291Z,87.40
2018-09-21T13:48:32.774Z,87.08
2018-09-21T13:51:01.176Z,87.66
2018-09-21T13:53:29.634Z,87.79
2018-09-21T13:55:58.050Z,88.31
2018-09-21T13:58:26.589Z,88.71
2018-09-21T14:00:55.055Z,88.90
2018-09-21T14:03:23.534Z,89.30
2018-09-21T14:05:51.995Z,88.59
2018-09-21T14:08:20.452Z,88.70
2018-09-21T14:10:48.894Z,89.22
2018-09-21T14:13:17.366Z,88.33
2018-09-21T14:15:45.858Z,87.66
2018-09-21T14:18:14.306Z,87.90
2018-09-21T14:20:42.931Z,87.95
2018-09-21T14:23:11.424Z,87.81
2018-09-21T14:25:39.955Z,88.40
2018-09-21T14:28:08.435Z,87.81
2018-09-21T14:30:36.853Z,87.43
2018-09-21T14:33:05.456Z,88.07
2018-09-21T14:35:33.902Z,88.57
2018-09-21T14:38:02.527Z,88.48
2018-09-21T14:40:31.008Z,89.93
2018-09-21T14:42:59.449Z,89.01
2018-09-21T14:45:27.949Z,88.56
2018-09-21T14:47:56.533Z,87.13
2018-09-21T14:50:25.100Z,87.44
2018-09-21T14:52:53.565Z,85.17
2018-09-21T14:55:22.189Z,85.22
2018-09-21T14:57:50.652Z,88.02
2018-09-21T15:00:19.129Z,88.54
2018-09-21T15:02:47.707Z,88.01
2018-09-21T15:05:16.477Z,89.93
2018-09-21T15:07:45.094Z,90.24
2018-09-21T15:10:13.638Z,90.07
2018-09-21T15:12:42.123Z,89.80
2018-09-21T15:15:10.615Z,88.07
2018-09-21T15:17:39.200Z,88.73
2018-09-21T15:20:07.826Z,87.59
2018-09-21T15:22:36.698Z,88.18
2018-09-21T15:25:06.976Z,88.88
2018-09-21T15:27:36.254Z,88.18
2018-09-21T15:30:05.267Z,87.43
2018-09-21T15:32:34.314Z,88.31
2018-09-21T15:35:02.802Z,89.06
2018-09-21T15:37:31.485Z,89.73
2018-09-21T15:40:00.283Z,88.37
2018-09-21T15:42:28.892Z,89.50
2018-09-21T15:44:58.060Z,88.07
2018-09-21T15:47:27.129Z,87.99
2018-09-21T15:49:55.568Z,88.02
2018-09-21T15:52:24.055Z,88.31
2018-09-21T15:54:52.706Z,88.99
2018-09-21T15:57:21.390Z,90.22
2018-09-21T15:59:50.154Z,89.17
2018-09-21T16:02:18.641Z,88.57
2018-09-21T16:04:47.160Z,89.85
2018-09-21T16:07:15.844Z,89.84
2018-09-21T16:09:45.219Z,88.14
2018-09-21T16:12:14.467Z,89.39
2018-09-21T16:14:42.906Z,88.94
2018-09-21T16:17:11.764Z,88.72
2018-09-21T16:19:40.322Z,88.67
2018-09-21T16:22:08.774Z,87.82
2018-09-21T16:24:37.236Z,87.88
2018-09-21T16:27:06.331Z,88.25
2018-09-21T16:29:34.925Z,88.17
2018-09-21T16:32:03.404Z,89.09
2018-09-21T16:34:32.269Z,88.83
2018-09-21T16:37:00.857Z,89.09
2018-09-21T16:39:29.316Z,88.96
2018-09-21T16:41:58.618Z,88.91
2018-09-21T16:44:27.398Z,90.17
2018-09-21T16:46:56.114Z,90.66
2018-09-21T16:49:25.259Z,90.13
2018-09-21T16:51:54.134Z,89.21
2018-09-21T16:54:22.944Z,89.93
2018-09-21T16:56:51.987Z,89.72
2018-09-21T16:59:20.690Z,89.06
2018-09-21T17:01:49.582Z,88.70
2018-09-21T17:04:18.372Z,89.18
2018-09-21T17:06:49.389Z,90.33
2018-09-21T17:09:18.292Z,88.54
2018-09-21T17:11:46.857Z,89.25
2018-09-21T17:14:15.218Z,88.90
2018-09-21T17:16:43.990Z,89.26
2018-09-21T17:19:12.343Z,89.21
2018-09-21T17:21:40.886Z,88.86
2018-09-21T17:24:09.223Z,88.21
2018-09-21T17:26:37.577Z,88.46
2018-09-21T17:29:06.220Z,87.91
2018-09-21T17:31:34.676Z,88.99
2018-09-21T17:34:03.203Z,88.23
2018-09-21T17:36:31.510Z,88.38
2018-09-21T17:38:59.945Z,88.33
2018-09-21T17:41:28.363Z,88.39
2018-09-21T17:43:56.708Z,88.29
2018-09-21T17:46:26.859Z,88.02
2018-09-21T17:48:55.475Z,88.17
2018-09-21T17:51:23.950Z,88.64
2018-09-21T17:54:30.428Z,86.98
2018-09-21T17:56:59.812Z,87.28
2018-09-21T17:59:28.126Z,87.29
2018-09-21T18:01:56.470Z,87.83
2018-09-21T18:04:25.969Z,87.50
2018-09-21T18:06:55.598Z,88.24
2018-09-21T18:09:24.249Z,87.81
2018-09-21T18:11:53.242Z,89.04
2018-09-21T18:14:27.042Z,89.10
2018-09-21T18:16:56.939Z,88.48
2018-09-21T18:19:27.434Z,88.86
2018-09-21T18:21:56.556Z,88.02
2018-09-21T18:24:26.054Z,88.60
2018-09-21T18:26:55.988Z,88.84
2018-09-21T18:29:25.770Z,89.09
2018-09-21T18:31:54.638Z,88.54
2018-09-21T18:34:23.595Z,89.40
2018-09-21T18:36:52.613Z,89.24
2018-09-21T18:39:21.809Z,89.55
2018-09-21T18:41:50.727Z,88.48
2018-09-21T18:44:19.505Z,87.23
2018-09-21T18:46:48.743Z,87.33
2018-09-21T18:49:17.494Z,87.20
2018-09-21T18:51:46.841Z,87.51
2018-09-21T18:54:15.712Z,87.29
2018-09-21T18:56:46.620Z,87.68
2018-09-21T18:59:17.082Z,87.92
2018-09-21T19:01:46.541Z,87.77
2018-09-21T19:04:16.200Z,86.34
2018-09-21T19:06:44.712Z,87.14
2018-09-21T19:09:13.327Z,85.91
2018-09-21T19:11:41.771Z,84.32
2018-09-21T19:14:10.195Z,83.93
2018-09-21T19:16:39.407Z,84.08
2018-09-21T19:19:07.913Z,84.74
2018-09-21T19:21:37.708Z,83.27
2018-09-21T19:24:08.318Z,83.44
2018-09-21T19:26:38.048Z,82.21
2018-09-21T19:29:06.872Z,83.20
2018-09-21T19:31:35.177Z,83.51
2018-09-21T19:34:03.609Z,84.45
2018-09-21T19:36:35.793Z,85.04
2018-09-21T19:39:07.108Z,84.72
2018-09-21T19:41:35.442Z,85.00
2018-09-21T19:44:04.586Z,86.93
2018-09-21T19:46:33.097Z,87.51
2018-09-21T19:49:01.431Z,87.50
2018-09-21T19:51:29.907Z,88.57
2018-09-21T19:53:58.250Z,89.29
2018-09-21T19:56:26.550Z,89.90
2018-09-21T19:58:54.938Z,91.61
2018-09-21T20:01:23.224Z,91.36
2018-09-21T20:03:51.553Z,91.10
2018-09-21T20:06:21.107Z,90.96
2018-09-21T20:08:50.522Z,91.18
2018-09-21T20:11:20.152Z,91.03
2018-09-21T20:13:49.271Z,89.83
2018-09-21T20:16:17.605Z,90.98
2018-09-21T20:18:46.039Z,90.91
2018-09-21T20:21:14.354Z,90.84
2018-09-21T20:23:42.762Z,89.82
2018-09-21T20:26:11.047Z,89.98
2018-09-21T20:28:39.851Z,90.30
2018-09-21T20:31:13.606Z,89.37
2018-09-21T20:33:42.406Z,89.85
2018-09-21T20:36:10.750Z,89.06
2018-09-21T20:38:39.097Z,89.57
2018-09-21T20:41:07.535Z,90.58
2018-09-21T20:43:35.818Z,89.86
2018-09-21T20:46:04.147Z,89.61
2018-09-21T20:48:32.422Z,88.65
2018-09-21T20:51:00.722Z,88.73
2018-09-21T20:53:29.026Z,89.26
2018-09-21T20:55:57.341Z,89.61
2018-09-21T20:58:25.742Z,90.42
2018-09-21T21:00:54.062Z,90.33
2018-09-21T21:03:22.477Z,90.68
2018-09-21T21:05:50.758Z,89.54
2018-09-21T21:08:19.405Z,89.88
2018-09-21T21:10:47.706Z,89.89
2018-09-21T21:13:16.074Z,90.23
2018-09-21T21:15:44.378Z,89.99
2018-09-21T21:18:12.815Z,87.53
2018-09-21T21:20:41.123Z,86.46
2018-09-21T21:23:09.394Z,86.54
2018-09-21T21:25:37.890Z,87.35
2018-09-21T21:28:06.540Z,85.80
2018-09-21T21:30:34.887Z,84.17
2018-09-21T21:33:03.230Z,82.79
2018-09-21T21:35:31.547Z,83.24
2018-09-21T21:37:59.862Z,81.92
2018-09-21T21:40:28.199Z,79.02
2018-09-21T21:42:57.374Z,80.55
2018-09-21T21:45:25.725Z,80.43
2018-09-21T21:47:54.032Z,81.06
2018-09-21T21:50:22.294Z,81.35
2018-09-21T21:52:50.667Z,81.82
2018-09-21T21:55:18.974Z,81.16
2018-09-21T21:57:47.318Z,81.67
2018-09-21T22:00:15.701Z,81.75
2018-09-21T22:02:44.042Z,81.64
2018-09-21T22:05:12.386Z,80.84
2018-09-21T22:07:40.833Z,80.63
2018-09-21T22:10:09.542Z,79.93
2018-09-21T22:12:43.045Z,81.48
2018-09-21T22:15:13.943Z,80.84
2018-09-21T22:17:42.366Z,81.13
2018-09-21T22:20:11.039Z,80.99
2018-09-21T22:22:39.492Z,79.13
2018-09-21T22:25:07.989Z,80.00
2018-09-21T22:27:36.333Z,77.73
2018-09-21T22:30:05.003Z,76.94
2018-09-21T22:32:33.325Z,79.35
2018-09-21T22:35:01.623Z,80.60
2018-09-21T22:37:29.991Z,79.86
2018-09-21T22:39:58.330Z,79.14
2018-09-21T22:42:26.664Z,78.97
2018-09-21T22:44:55.106Z,77.99
2018-09-21T22:47:23.405Z,79.37
2018-09-21T22:49:51.721Z,80.36
2018-09-21T22:52:20.051Z,80.31
2018-09-21T22:54:48.339Z,78.67
2018-09-21T22:57:16.722Z,78.00
2018-09-21T22:59:45.192Z,78.92
2018-09-21T23:02:13.681Z,80.33
2018-09-21T23:04:42.382Z,77.40
2018-09-21T23:07:11.891Z,77.49
2018-09-21T23:09:40.175Z,78.16
2018-09-21T23:12:08.514Z,77.02
2018-09-21T23:14:36.806Z,76.60
2018-09-21T23:17:05.158Z,76.36
2018-09-21T23:19:33.538Z,78.04
2018-09-21T23:22:01.918Z,76.26
2018-09-21T23:24:30.227Z,75.90
2018-09-21T23:26:58.543Z,75.44
2018-09-21T23:29:26.830Z,75.79
2018-09-21T23:31:55.212Z,75.45
2018-09-21T23:34:23.499Z,75.81
2018-09-21T23:36:51.798Z,76.37
2018-09-21T23:39:20.070Z,75.75
2018-09-21T23:41:48.462Z,75.44
2018-09-21T23:44:16.783Z,75.93
2018-09-21T23:46:45.081Z,73.91
2018-09-21T23:49:13.386Z,73.33
2018-09-21T23:51:42.027Z,74.64
2018-09-21T23:54:10.292Z,72.81
2018-09-21T23:56:38.592Z,73.11
2018-09-21T23:59:06.874Z,71.82
